Time;durP1;ratioP1;P1;durP2;ratioP2;P2;SDS_P1;SDS_P2;PMS_P1;PMS_P2;Temp;Humidity;BMP_temperature;BMP_pressure;BME280_temperature;BME280_humidity;BME280_pressure;Samples;Min_cycle;Max_cycle;Signal;HPM_P1;HPM_P2
2023/09/25 00:00:34;;;;;;;2.80;0.80;;;;;;;16.46;100.00;100957.03;5588763;31;34011;-72
2023/09/25 00:03:38;;;;;;;1.90;0.60;;;;;;;16.45;100.00;100955.41;5588997;31;34572;-72
2023/09/25 00:06:42;;;;;;;3.97;0.75;;;;;;;16.45;100.00;100950.88;5589059;31;34581;-73
2023/09/25 00:09:45;;;;;;;3.55;0.90;;;;;;;16.43;100.00;100939.50;5574532;31;33917;-73
2023/09/25 00:12:48;;;;;;;3.45;0.70;;;;;;;16.42;100.00;100932.47;5588679;31;34564;-73
2023/09/25 00:15:54;;;;;;;1.30;0.50;;;;;;;16.43;100.00;100930.62;5589212;31;33900;-73
2023/09/25 00:18:56;;;;;;;1.77;0.70;;;;;;;16.42;100.00;100927.12;5588745;31;33843;-73
2023/09/25 00:22:00;;;;;;;1.48;0.70;;;;;;;16.44;100.00;100937.66;5588612;31;33878;-72
2023/09/25 00:25:04;;;;;;;2.95;0.70;;;;;;;16.43;100.00;100922.59;5588492;31;35226;-73
2023/09/25 00:28:07;;;;;;;1.50;0.62;;;;;;;16.42;100.00;100920.94;5588365;31;33833;-72
2023/09/25 00:31:10;;;;;;;3.03;0.80;;;;;;;16.41;100.00;100906.72;5588301;31;33980;-72
2023/09/25 00:34:14;;;;;;;1.42;0.70;;;;;;;16.42;100.00;100905.72;5574676;31;34026;-72
2023/09/25 00:37:17;;;;;;;3.70;0.70;;;;;;;16.42;100.00;100904.87;5588588;31;33874;-72
2023/09/25 00:40:24;;;;;;;0.98;0.57;;;;;;;16.42;100.00;100904.87;5574568;31;33827;-72
2023/09/25 00:43:27;;;;;;;3.28;0.62;;;;;;;16.45;100.00;100909.88;5588285;31;33893;-72
2023/09/25 00:46:31;;;;;;;3.45;1.17;;;;;;;16.50;100.00;100908.28;5561396;31;33807;-72
2023/09/25 00:49:34;;;;;;;4.35;0.80;;;;;;;16.47;100.00;100900.59;5588118;31;34079;-73
2023/09/25 00:52:42;;;;;;;2.08;0.73;;;;;;;16.44;100.00;100909.03;5588104;31;34464;-72
2023/09/25 00:55:47;;;;;;;3.30;0.65;;;;;;;16.43;100.00;100904.69;5588293;31;33850;-72
2023/09/25 00:58:52;;;;;;;3.12;0.88;;;;;;;16.42;100.00;100900.34;5587915;31;34814;-72
2023/09/25 01:01:55;;;;;;;3.37;1.00;;;;;;;16.43;100.00;100904.69;5588173;31;34564;-73
2023/09/25 01:05:00;;;;;;;1.37;0.60;;;;;;;16.45;100.00;100924.09;5587882;31;33873;-71
2023/09/25 01:08:04;;;;;;;2.08;0.68;;;;;;;16.48;100.00;100926.38;5587812;31;33817;-72
2023/09/25 01:11:08;;;;;;;2.87;0.90;;;;;;;16.45;100.00;100942.84;5574002;31;34395;-73
2023/09/25 01:14:11;;;;;;;1.58;0.65;;;;;;;16.44;100.00;100949.19;5587722;31;33862;-73
2023/09/25 01:17:14;;;;;;;1.12;0.70;;;;;;;16.46;100.00;100957.03;5587935;31;34146;-73
2023/09/25 01:20:17;;;;;;;1.98;0.60;;;;;;;16.53;100.00;100948.03;5587465;31;34488;-73
2023/09/25 01:23:21;;;;;;;3.67;0.70;;;;;;;16.43;100.00;100960.09;5575745;31;34476;-73
2023/09/25 01:26:24;;;;;;;3.22;0.75;;;;;;;16.41;100.00;100962.97;5590516;31;33992;-72
2023/09/25 01:29:27;;;;;;;1.55;0.60;;;;;;;16.43;100.00;100957.41;5576710;31;33913;-72
2023/09/25 01:32:30;;;;;;;1.70;0.80;;;;;;;16.44;100.00;100961.75;5590477;31;34108;-73
2023/09/25 01:35:33;;;;;;;1.27;0.70;;;;;;;16.43;100.00;100954.75;5590384;31;34057;-72
2023/09/25 01:38:36;;;;;;;2.70;0.70;;;;;;;16.42;100.00;100961.12;5590459;31;33923;-73
2023/09/25 01:41:39;;;;;;;2.17;0.65;;;;;;;16.41;100.00;100957.59;5590368;31;34904;-72
2023/09/25 01:44:41;;;;;;;3.17;0.77;;;;;;;16.44;100.00;100956.41;5590187;31;33842;-73
2023/09/25 01:47:50;;;;;;;2.62;0.80;;;;;;;16.45;100.00;100948.19;5590373;31;33800;-72
2023/09/25 01:50:53;;;;;;;2.45;0.70;;;;;;;16.41;100.00;100946.88;5590254;31;33913;-73
2023/09/25 01:53:57;;;;;;;2.20;0.70;;;;;;;16.42;100.00;100934.34;5590295;31;33853;-73
2023/09/25 01:57:02;;;;;;;1.75;0.70;;;;;;;16.43;100.00;100926.13;5576693;31;34464;-73
2023/09/25 02:00:09;;;;;;;3.40;0.70;;;;;;;16.40;100.00;100920.31;5590104;31;33914;-73
2023/09/25 02:03:13;;;;;;;2.83;0.70;;;;;;;16.40;100.00;100914.97;5576945;31;34060;-73
2023/09/25 02:06:16;;;;;;;1.58;0.75;;;;;;;16.40;100.00;100917.66;5576553;31;33779;-72
2023/09/25 02:09:19;;;;;;;2.60;0.62;;;;;;;16.38;100.00;100909.78;5590417;31;33958;-73
2023/09/25 02:12:22;;;;;;;4.47;0.95;;;;;;;16.40;100.00;100914.97;5590116;31;34565;-73
2023/09/25 02:15:25;;;;;;;4.97;0.85;;;;;;;16.42;100.00;100907.56;5590056;31;33867;-72
2023/09/25 02:18:29;;;;;;;1.55;0.70;;;;;;;16.41;100.00;100896.00;5590189;31;33906;-73
2023/09/25 02:21:33;;;;;;;5.10;0.75;;;;;;;16.38;100.00;100895.56;5576311;31;33931;-71
2023/09/25 02:24:38;;;;;;;5.78;0.80;;;;;;;16.38;100.00;100874.97;5576695;31;33301;-74
2023/09/25 02:27:42;;;;;;;4.87;0.85;;;;;;;16.38;100.00;100879.50;5576271;31;33925;-72
2023/09/25 02:30:45;;;;;;;1.45;0.60;;;;;;;16.32;100.00;100856.19;5576064;31;33928;-73
2023/09/25 02:33:48;;;;;;;2.85;0.90;;;;;;;16.23;100.00;100827.88;5589468;31;33964;-72
2023/09/25 02:36:51;;;;;;;3.25;0.80;;;;;;;16.13;100.00;100836.25;5589927;31;33851;-73
2023/09/25 02:39:54;;;;;;;4.07;0.80;;;;;;;16.06;100.00;100844.25;5589712;31;33754;-73
2023/09/25 02:42:57;;;;;;;3.00;0.88;;;;;;;16.00;100.00;100862.91;5589805;31;34461;-73
2023/09/25 02:46:01;;;;;;;1.42;0.80;;;;;;;15.95;100.00;100850.09;5589513;31;33768;-73
2023/09/25 02:49:04;;;;;;;3.22;0.85;;;;;;;15.89;100.00;100861.56;5589781;31;33448;-72
2023/09/25 02:52:08;;;;;;;0.90;0.60;;;;;;;15.83;100.00;100854.28;5589802;31;33927;-71
2023/09/25 02:55:11;;;;;;;1.15;0.85;;;;;;;15.78;100.00;100855.91;5589930;31;33796;-73
2023/09/25 02:58:14;;;;;;;1.83;0.90;;;;;;;15.75;100.00;100854.41;5589765;31;33945;-73
2023/09/25 03:01:17;;;;;;;4.35;0.90;;;;;;;15.70;100.00;100862.19;5589700;31;34482;-72
2023/09/25 03:04:21;;;;;;;6.22;0.80;;;;;;;15.67;100.00;100862.56;5590022;31;33950;-72
2023/09/25 03:07:24;;;;;;;8.32;0.80;;;;;;;15.69;100.00;100867.69;5589749;31;33914;-73
2023/09/25 03:10:27;;;;;;;3.10;0.80;;;;;;;15.58;100.00;100867.22;5589822;31;33873;-73
2023/09/25 03:13:30;;;;;;;4.72;1.00;;;;;;;15.55;100.00;100864.06;5589919;31;33898;-73
2023/09/25 03:16:34;;;;;;;2.35;0.80;;;;;;;15.54;100.00;100886.50;5589611;31;34428;-73
2023/09/25 03:19:38;;;;;;;4.10;0.75;;;;;;;15.48;100.00;100890.72;5589683;31;33475;-73
2023/09/25 03:22:42;;;;;;;5.05;0.90;;;;;;;15.50;100.00;100885.16;5589611;31;33846;-72
2023/09/25 03:25:45;;;;;;;2.40;0.70;;;;;;;15.48;100.00;100876.50;5589481;31;33914;-72
2023/09/25 03:28:48;;;;;;;2.30;0.80;;;;;;;15.50;100.00;100872.62;5589495;31;34497;-73
2023/09/25 03:31:52;;;;;;;2.35;1.00;;;;;;;15.50;100.00;100885.97;5589659;31;33793;-73
2023/09/25 03:34:56;;;;;;;2.17;0.85;;;;;;;15.57;100.00;100883.44;5589614;31;34048;-73
2023/09/25 03:37:59;;;;;;;3.78;0.90;;;;;;;15.60;100.00;100902.59;5589418;31;33939;-72
2023/09/25 03:41:02;;;;;;;4.18;1.20;;;;;;;15.60;100.00;100907.13;5589370;31;33853;-73
2023/09/25 03:44:05;;;;;;;2.30;0.80;;;;;;;15.60;100.00;100915.97;5589040;31;33803;-73
2023/09/25 03:47:09;;;;;;;4.35;1.00;;;;;;;15.62;100.00;100924.66;5588160;31;33815;-72
2023/09/25 03:50:12;;;;;;;1.65;0.98;;;;;;;15.68;100.00;100931.09;5589215;31;35283;-72
2023/09/25 03:53:15;;;;;;;3.45;0.95;;;;;;;15.73;100.00;100943.91;5589133;31;33931;-72
2023/09/25 03:56:18;;;;;;;3.00;0.90;;;;;;;15.78;100.00;100946.84;5589058;31;34635;-72
2023/09/25 03:59:21;;;;;;;2.72;1.00;;;;;;;15.83;100.00;100950.59;5589269;31;33899;-73
2023/09/25 04:02:24;;;;;;;3.55;1.20;;;;;;;15.89;100.00;100957.06;5589336;31;34564;-73
2023/09/25 04:05:28;;;;;;;1.98;1.10;;;;;;;15.93;100.00;100966.34;5588907;31;33958;-72
2023/09/25 04:08:30;;;;;;;3.05;0.90;;;;;;;16.01;100.00;100969.78;5588963;31;34888;-72
2023/09/25 04:11:34;;;;;;;5.00;1.20;;;;;;;15.97;100.00;100976.53;5575579;31;33717;-72
2023/09/25 04:14:37;;;;;;;1.90;0.90;;;;;;;15.96;100.00;100972.19;5588739;31;34799;-73
2023/09/25 04:17:40;;;;;;;3.50;1.02;;;;;;;16.00;100.00;100984.16;5588750;31;33900;-72
2023/09/25 04:20:44;;;;;;;2.78;1.00;;;;;;;16.01;100.00;100985.81;5588761;31;33827;-71
2023/09/25 04:23:46;;;;;;;5.03;1.00;;;;;;;16.04;100.00;100982.75;5588931;31;33758;-72
2023/09/25 04:26:49;;;;;;;4.32;1.00;;;;;;;16.06;100.00;100990.63;5588590;31;34730;-71
2023/09/25 04:29:52;;;;;;;4.05;1.10;;;;;;;16.06;100.00;100987.94;5588570;31;33828;-72
2023/09/25 04:32:55;;;;;;;3.62;1.12;;;;;;;16.08;100.00;100993.91;5574750;31;34787;-71
2023/09/25 04:36:01;;;;;;;4.72;1.17;;;;;;;16.10;100.00;100999.91;5588089;31;34088;-73
2023/09/25 04:39:04;;;;;;;7.10;1.50;;;;;;;16.17;100.00;101000.81;5588350;31;33779;-72
2023/09/25 04:42:09;;;;;;;9.63;1.50;;;;;;;16.20;100.00;101003.13;5588320;31;33815;-72
2023/09/25 04:45:18;;;;;;;3.92;1.25;;;;;;;16.33;100.00;101007.78;5588280;31;33839;-72
2023/09/25 04:48:22;;;;;;;2.47;1.13;;;;;;;16.19;100.00;101009.50;5587931;31;34981;-72
2023/09/25 04:51:24;;;;;;;5.10;1.20;;;;;;;16.19;100.00;101014.84;5587914;31;33807;-72
2023/09/25 04:54:28;;;;;;;5.43;1.25;;;;;;;16.20;100.00;101004.97;5588181;31;33951;-73
2023/09/25 04:57:31;;;;;;;7.47;2.90;;;;;;;16.36;100.00;101002.06;5589461;31;33896;-72
2023/09/25 05:00:35;;;;;;;5.70;1.33;;;;;;;16.31;100.00;101013.34;5591042;31;34456;-72
2023/09/25 05:03:40;;;;;;;2.72;1.12;;;;;;;16.32;100.00;101014.16;5590531;31;33795;-73
2023/09/25 05:06:44;;;;;;;3.37;2.17;;;;;;;16.39;100.00;101009.72;5590801;31;34067;-73
2023/09/25 05:09:47;;;;;;;4.32;1.35;;;;;;;16.34;100.00;101012.97;5590501;31;33889;-72
2023/09/25 05:12:50;;;;;;;5.60;1.42;;;;;;;16.35;100.00;101011.13;5590813;31;34074;-73
2023/09/25 05:15:54;;;;;;;7.03;1.60;;;;;;;16.34;100.00;101018.31;5590410;31;33787;-72
2023/09/25 05:18:59;;;;;;;4.40;1.20;;;;;;;16.34;100.00;101014.81;5576838;31;34689;-72
2023/09/25 05:22:02;;;;;;;4.32;1.10;;;;;;;16.36;100.00;101016.25;5590659;31;33871;-72
2023/09/25 05:25:09;;;;;;;6.72;1.40;;;;;;;16.39;100.00;101015.06;5590487;31;34248;-72
2023/09/25 05:28:13;;;;;;;3.60;1.30;;;;;;;16.39;100.00;101013.22;5590442;31;34464;-72
2023/09/25 05:31:16;;;;;;;5.07;1.40;;;;;;;16.45;100.00;101019.66;5590110;31;34489;-70
2023/09/25 05:34:19;;;;;;;5.12;1.40;;;;;;;16.60;100.00;101033.87;5563747;31;32146;-71
2023/09/25 05:37:22;;;;;;;8.30;1.50;;;;;;;16.70;100.00;101020.16;5576362;31;34086;-71
2023/09/25 05:40:25;;;;;;;7.35;1.27;;;;;;;16.71;100.00;101021.78;5589729;31;33928;-72
2023/09/25 05:43:28;;;;;;;6.47;1.45;;;;;;;16.71;100.00;101027.16;5589865;31;33811;-71
2023/09/25 05:46:31;;;;;;;3.72;1.30;;;;;;;16.72;100.00;101026.13;5589714;31;33905;-71
2023/09/25 05:49:34;;;;;;;6.22;1.40;;;;;;;16.70;100.00;101026.31;5589948;31;33947;-71
2023/09/25 05:52:38;;;;;;;3.53;1.12;;;;;;;16.79;100.00;101027.03;5589430;31;33942;-71
2023/09/25 05:55:41;;;;;;;4.90;1.30;;;;;;;16.77;100.00;101040.63;5589727;31;33893;-71
2023/09/25 05:58:44;;;;;;;6.82;1.65;;;;;;;16.93;100.00;101051.09;5575805;31;34856;-71
2023/09/25 06:01:47;;;;;;;8.43;1.55;;;;;;;17.09;100.00;101058.00;5589872;31;34683;-70
2023/09/25 06:04:50;;;;;;;7.00;1.60;;;;;;;17.27;100.00;101062.91;5590025;31;34517;-71
2023/09/25 06:07:53;;;;;;;5.35;1.40;;;;;;;17.22;100.00;101068.03;5588831;31;34144;-72
2023/09/25 06:11:04;;;;;;;6.55;1.60;;;;;;;17.33;100.00;101078.22;5589879;31;33779;-71
2023/09/25 06:14:07;;;;;;;5.07;1.50;;;;;;;17.30;100.00;101076.75;5589848;31;33968;-72
2023/09/25 06:17:10;;;;;;;8.18;1.65;;;;;;;17.53;100.00;101081.03;5589738;31;34307;-71
2023/09/25 06:20:15;;;;;;;9.43;1.60;;;;;;;17.35;100.00;101077.00;5589702;31;34653;-71
2023/09/25 06:23:19;;;;;;;8.52;1.67;;;;;;;17.47;100.00;101081.81;5576112;31;34435;-72
2023/09/25 06:26:27;;;;;;;7.35;1.40;;;;;;;17.66;100.00;101076.63;5589642;31;33818;-72
2023/09/25 06:29:31;;;;;;;3.72;1.70;;;;;;;17.73;100.00;101071.28;5588846;31;33991;-72
2023/09/25 06:32:34;;;;;;;5.55;1.48;;;;;;;17.80;100.00;101072.16;5588969;31;33863;-72
2023/09/25 06:35:37;;;;;;;7.62;1.52;;;;;;;18.05;100.00;101081.37;5589369;31;34448;-72
2023/09/25 06:38:40;;;;;;;3.83;1.30;;;;;;;17.80;100.00;101082.91;5589556;31;34090;-72
2023/09/25 06:41:43;;;;;;;5.55;1.40;;;;;;;17.81;100.00;101085.38;5589583;31;33881;-72
2023/09/25 06:44:52;;;;;;;7.07;1.55;;;;;;;17.69;100.00;101084.28;5589215;31;33942;-72
2023/09/25 06:47:56;;;;;;;5.30;1.40;;;;;;;17.90;100.00;101093.28;5589139;31;33997;-72
2023/09/25 06:50:59;;;;;;;6.03;1.50;;;;;;;18.14;100.00;101104.34;5589128;31;34421;-72
2023/09/25 06:54:03;;;;;;;6.20;1.52;;;;;;;18.38;100.00;101116.44;5589288;31;33897;-72
2023/09/25 06:57:06;;;;;;;6.72;1.35;;;;;;;18.24;100.00;101125.47;5589174;31;33822;-71
2023/09/25 07:00:09;;;;;;;9.50;1.30;;;;;;;18.46;100.00;101123.47;5575532;31;33761;-73
2023/09/25 07:03:12;;;;;;;7.20;1.67;;;;;;;18.66;100.00;101121.72;5589408;31;33917;-72
2023/09/25 07:06:17;;;;;;;4.18;1.33;;;;;;;18.95;100.00;101129.44;5589530;31;33362;-72
2023/09/25 07:09:22;;;;;;;5.40;1.25;;;;;;;19.01;100.00;101136.72;5575746;31;33361;-72
2023/09/25 07:12:25;;;;;;;6.28;1.50;;;;;;;19.21;100.00;101135.91;5575740;31;35253;-72
2023/09/25 07:15:30;;;;;;;6.18;1.73;;;;;;;19.38;100.00;101129.91;5575933;31;34582;-71
2023/09/25 07:18:34;;;;;;;4.32;1.37;;;;;;;19.32;100.00;101135.28;5589510;31;34089;-71
2023/09/25 07:21:37;;;;;;;6.32;1.45;;;;;;;19.72;100.00;101139.63;5589342;31;33947;-70
2023/09/25 07:24:41;;;;;;;5.45;1.37;;;;;;;20.50;100.00;101131.56;5589359;31;34446;-70
2023/09/25 07:27:44;;;;;;;7.50;1.62;;;;;;;22.17;100.00;101135.28;5589422;31;33879;-70
2023/09/25 07:30:47;;;;;;;6.68;1.40;;;;;;;22.96;100.00;101137.78;5589595;31;34109;-71
2023/09/25 07:33:53;;;;;;;6.93;1.37;;;;;;;23.16;100.00;101128.53;5589409;31;33936;-71
2023/09/25 07:36:57;;;;;;;9.10;1.10;;;;;;;22.87;100.00;101127.53;5589403;31;34590;-72
2023/09/25 07:40:00;;;;;;;6.12;1.50;;;;;;;23.60;91.41;101135.34;5575195;31;34112;-71
2023/09/25 07:43:03;;;;;;;4.90;1.30;;;;;;;23.75;93.01;101147.38;5589213;31;34599;-70
2023/09/25 07:46:06;;;;;;;6.87;1.60;;;;;;;24.27;87.76;101147.44;5571503;31;122601;-72
2023/09/25 07:49:10;;;;;;;6.68;2.12;;;;;;;25.33;78.48;101144.06;5575429;31;34503;-71
2023/09/25 07:52:16;;;;;;;4.20;1.37;;;;;;;24.92;78.55;101149.84;5588935;31;34882;-70
2023/09/25 07:55:23;;;;;;;5.12;1.37;;;;;;;25.19;75.78;101150.06;5588764;31;33854;-71
2023/09/25 07:58:27;;;;;;;10.27;1.50;;;;;;;24.21;87.62;101151.94;5588679;31;33910;-70
2023/09/25 08:01:30;;;;;;;5.65;1.60;;;;;;;24.00;90.66;101149.84;5588814;31;34820;-71
2023/09/25 08:04:35;;;;;;;7.40;1.42;;;;;;;23.64;98.46;101155.47;5588743;31;33812;-69
2023/09/25 08:07:38;;;;;;;6.32;1.67;;;;;;;23.00;100.00;101156.25;5588616;31;34491;-70
2023/09/25 08:10:44;;;;;;;4.60;1.48;;;;;;;22.26;100.00;101165.53;5588457;31;34113;-70
2023/09/25 08:13:47;;;;;;;7.80;1.95;;;;;;;23.05;100.00;101181.59;5588923;31;33767;-70
2023/09/25 08:16:50;;;;;;;9.30;2.35;;;;;;;23.50;100.00;101184.69;5589151;31;33948;-72
2023/09/25 08:19:53;;;;;;;10.00;1.73;;;;;;;23.23;100.00;101183.44;5588776;31;34539;-71
2023/09/25 08:22:57;;;;;;;7.22;1.50;;;;;;;23.49;100.00;101179.50;5588648;31;34494;-71
2023/09/25 08:25:59;;;;;;;7.90;1.75;;;;;;;24.22;99.54;101183.41;5588149;31;33856;-71
2023/09/25 08:29:05;;;;;;;6.28;1.85;;;;;;;25.80;84.28;101188.03;5587942;31;34096;-71
2023/09/25 08:32:10;;;;;;;7.95;2.28;;;;;;;26.01;78.67;101185.63;5588799;31;33907;-71
2023/09/25 08:35:14;;;;;;;6.20;1.60;;;;;;;25.95;77.68;101171.12;5590286;31;33850;-72
2023/09/25 08:38:17;;;;;;;9.13;1.75;;;;;;;26.94;73.15;101177.34;5590588;31;34477;-71
2023/09/25 08:41:21;;;;;;;8.65;1.83;;;;;;;26.05;72.26;101171.28;5590246;31;34102;-71
2023/09/25 08:44:25;;;;;;;6.53;1.87;;;;;;;24.10;96.61;101173.63;5590673;31;33794;-71
2023/09/25 08:47:31;;;;;;;6.28;1.80;;;;;;;24.06;97.08;101169.75;5590577;31;33899;-71
2023/09/25 08:50:36;;;;;;;8.23;1.80;;;;;;;23.24;100.00;101177.75;5590339;31;33942;-70
2023/09/25 08:53:39;;;;;;;7.40;2.03;;;;;;;22.85;100.00;101167.53;5590745;31;34469;-69
2023/09/25 08:56:43;;;;;;;7.25;1.90;;;;;;;22.86;100.00;101170.00;5590670;31;34486;-69
2023/09/25 08:59:50;;;;;;;7.28;2.00;;;;;;;22.56;100.00;101162.91;5590897;31;34619;-69
2023/09/25 09:02:53;;;;;;;7.32;2.10;;;;;;;22.23;100.00;101172.19;5590575;31;33903;-69
2023/09/25 09:05:57;;;;;;;8.68;2.30;;;;;;;22.38;100.00;101164.53;5590283;31;34512;-69
2023/09/25 09:09:00;;;;;;;10.77;2.53;;;;;;;21.65;100.00;101166.31;5590204;31;33971;-71
2023/09/25 09:12:04;;;;;;;9.82;2.50;;;;;;;21.85;100.00;101172.37;5589931;31;35561;-70
2023/09/25 09:15:24;;;;;;;9.00;2.10;;;;;;;21.75;100.00;101171.22;5590243;31;33809;-70
2023/09/25 09:18:28;;;;;;;9.93;2.30;;;;;;;21.83;100.00;101179.06;5576380;31;33828;-69
2023/09/25 09:21:33;;;;;;;10.40;2.40;;;;;;;21.59;100.00;101178.81;5590638;31;34558;-70
2023/09/25 09:24:38;;;;;;;7.80;2.33;;;;;;;21.17;100.00;101169.59;5589998;31;34129;-70
2023/09/25 09:27:45;;;;;;;6.30;2.50;;;;;;;21.06;100.00;101172.94;5590116;31;33919;-69
2023/09/25 09:30:48;;;;;;;9.13;2.33;;;;;;;21.28;100.00;101178.03;5590278;31;34619;-72
2023/09/25 09:33:56;;;;;;;15.80;2.55;;;;;;;21.34;100.00;101169.06;5590138;31;34553;-71
2023/09/25 09:37:00;;;;;;;7.95;2.62;;;;;;;21.77;100.00;101171.81;5576288;31;33434;-71
2023/09/25 09:40:11;;;;;;;5.12;2.10;;;;;;;22.20;100.00;101164.56;5591554;31;33877;-67
2023/09/25 09:43:17;;;;;;;8.70;2.65;;;;;;;22.37;100.00;101162.06;5589747;31;34117;-69
2023/09/25 09:46:28;;;;;;;9.32;2.62;;;;;;;21.89;100.00;101165.47;5590692;31;33965;-70
2023/09/25 09:49:39;;;;;;;8.63;2.50;;;;;;;22.21;100.00;101162.69;5577186;31;33863;-72
2023/09/25 09:52:43;;;;;;;6.85;2.47;;;;;;;21.90;100.00;101163.59;5590570;31;33652;-70
2023/09/25 09:55:47;;;;;;;8.25;2.17;;;;;;;22.15;100.00;101160.88;5576145;31;34058;-69
2023/09/25 09:58:51;;;;;;;7.97;2.45;;;;;;;22.38;100.00;101158.31;5576706;31;33792;-70
2023/09/25 10:01:57;;;;;;;7.22;2.30;;;;;;;22.47;100.00;101160.47;5576049;31;33873;-71
2023/09/25 10:05:02;;;;;;;7.85;2.50;;;;;;;22.42;100.00;101160.34;5590205;31;32585;-70
2023/09/25 10:08:09;;;;;;;10.75;2.40;;;;;;;22.48;100.00;101164.84;5576224;31;34078;-70
2023/09/25 10:11:19;;;;;;;8.63;2.28;;;;;;;22.91;100.00;101166.59;5590151;31;34506;-70
2023/09/25 10:14:24;;;;;;;8.52;2.30;;;;;;;22.69;100.00;101168.97;5590112;31;34103;-72
2023/09/25 10:17:41;;;;;;;11.12;2.47;;;;;;;23.12;100.00;101167.97;5589817;31;34489;-70
2023/09/25 10:20:45;;;;;;;9.20;2.30;;;;;;;22.95;100.00;101168.59;5589803;31;34261;-71
2023/09/25 10:23:50;;;;;;;7.40;2.17;;;;;;;22.95;100.00;101160.50;5589604;31;33813;-71
2023/09/25 10:26:54;;;;;;;7.68;2.03;;;;;;;22.96;100.00;101162.16;5589718;31;34431;-69
2023/09/25 10:30:11;;;;;;;6.25;2.17;;;;;;;22.28;100.00;101160.72;5589610;31;33833;-69
2023/09/25 10:33:20;;;;;;;8.43;2.05;;;;;;;22.73;100.00;101166.66;5589713;31;33934;-70
2023/09/25 10:36:37;;;;;;;5.22;2.00;;;;;;;22.47;100.00;101159.66;5575953;31;34554;-70
2023/09/25 10:39:41;;;;;;;10.23;2.37;;;;;;;22.89;100.00;101168.72;5589442;31;33883;-70
2023/09/25 10:42:44;;;;;;;7.65;2.22;;;;;;;23.03;100.00;101167.47;5589761;31;34445;-72
2023/09/25 10:45:47;;;;;;;7.53;2.28;;;;;;;23.04;100.00;101160.19;5589279;31;34045;-71
2023/09/25 10:48:51;;;;;;;7.78;2.42;;;;;;;23.70;100.00;101162.69;5590660;31;33883;-71
2023/09/25 10:51:55;;;;;;;8.57;2.20;;;;;;;24.24;100.00;101165.03;5575816;31;33811;-71
2023/09/25 10:54:58;;;;;;;8.48;2.30;;;;;;;26.19;86.29;101167.12;5576014;31;33784;-71
2023/09/25 10:58:06;;;;;;;6.22;2.00;;;;;;;27.18;77.85;101169.66;5589758;31;33884;-71
2023/09/25 11:01:09;;;;;;;13.60;2.35;;;;;;;27.25;76.79;101167.56;5589504;31;33928;-71
2023/09/25 11:04:12;;;;;;;11.80;2.30;;;;;;;27.62;72.74;101168.44;5589025;31;34408;-71
2023/09/25 11:07:16;;;;;;;7.40;1.90;;;;;;;29.49;65.65;101167.53;5588920;31;33325;-71
2023/09/25 11:10:18;;;;;;;7.72;2.15;;;;;;;28.84;64.34;101161.72;5575370;31;34304;-71
2023/09/25 11:13:22;;;;;;;10.82;2.30;;;;;;;28.65;63.29;101151.53;5589505;31;34797;-70
2023/09/25 11:16:25;;;;;;;6.82;2.05;;;;;;;29.59;62.12;101154.69;5589131;31;34731;-71
2023/09/25 11:19:28;;;;;;;6.82;1.70;;;;;;;29.35;61.58;101142.66;5588969;31;34546;-70
2023/09/25 11:22:37;;;;;;;6.97;2.05;;;;;;;30.39;59.53;101149.31;5575416;31;34605;-71
2023/09/25 11:25:44;;;;;;;;;;;;;;;29.91;57.41;101137.97;5589535;31;34466;-70
2023/09/25 11:28:53;;;;;;;8.73;2.20;;;;;;;27.13;69.12;101134.22;5589439;31;33957;-70
2023/09/25 11:31:56;;;;;;;;;;;;;;;28.99;63.76;101133.62;5575751;31;34805;-70
2023/09/25 11:35:08;;;;;;;6.90;1.87;;;;;;;30.49;58.42;101132.84;5588600;31;34082;-72
2023/09/25 11:38:21;;;;;;;8.88;1.98;;;;;;;33.43;48.89;101138.72;5575588;31;33849;-71
2023/09/25 11:41:25;;;;;;;4.60;1.80;;;;;;;31.30;52.81;101133.16;5589248;31;33852;-72
2023/09/25 11:44:28;;;;;;;10.15;2.05;;;;;;;34.46;45.73;101129.03;5588983;31;33823;-72
2023/09/25 11:47:31;;;;;;;8.65;1.90;;;;;;;36.42;40.89;101135.28;5588821;31;34249;-71
2023/09/25 11:50:36;;;;;;;8.07;2.05;;;;;;;33.15;45.03;101119.38;5589322;31;34466;-73
2023/09/25 11:53:39;;;;;;;8.02;1.77;;;;;;;35.87;41.73;101130.25;5588836;31;33889;-72
2023/09/25 11:56:42;;;;;;;8.23;2.00;;;;;;;34.48;41.59;101115.72;5588843;31;34590;-70
2023/09/25 11:59:45;;;;;;;6.87;1.95;;;;;;;32.13;46.89;101124.66;5588993;31;34011;-72
2023/09/25 12:02:49;;;;;;;5.43;1.90;;;;;;;31.82;47.54;101110.44;5588839;31;33865;-70
2023/09/25 12:05:52;;;;;;;6.75;2.03;;;;;;;29.69;51.87;101099.16;5587829;31;33861;-70
2023/09/25 12:08:55;;;;;;;12.50;2.12;;;;;;;28.15;58.35;101094.84;5588806;31;34129;-71
2023/09/25 12:11:58;;;;;;;8.77;2.10;;;;;;;29.36;55.48;101095.09;5588661;31;34009;-70
2023/09/25 12:15:03;;;;;;;7.65;2.08;;;;;;;29.50;55.21;101087.97;5588523;31;34617;-69
2023/09/25 12:18:09;;;;;;;7.18;2.17;;;;;;;29.56;54.68;101084.16;5588319;31;35015;-71
2023/09/25 12:21:14;;;;;;;8.60;2.10;;;;;;;29.20;55.52;101080.59;5588411;31;33811;-71
2023/09/25 12:24:18;;;;;;;12.25;2.10;;;;;;;31.20;50.82;101080.31;5574930;31;33855;-71
2023/09/25 12:27:22;;;;;;;10.02;2.22;;;;;;;31.06;50.63;101077.44;5588423;31;34815;-71
2023/09/25 12:30:25;;;;;;;9.05;1.90;;;;;;;31.78;48.62;101073.72;5574987;31;33814;-72
2023/09/25 12:33:29;;;;;;;5.87;2.00;;;;;;;32.45;46.60;101071.75;5588579;31;34112;-71
2023/09/25 12:36:32;;;;;;;6.00;2.00;;;;;;;31.95;47.26;101072.44;5588271;31;33762;-70
2023/09/25 12:39:35;;;;;;;10.65;2.40;;;;;;;29.77;52.44;101063.84;5574560;31;33907;-70
2023/09/25 12:42:38;;;;;;;5.20;1.90;;;;;;;30.55;52.27;101057.75;5588157;31;33872;-69
2023/09/25 12:45:56;;;;;;;7.47;1.90;;;;;;;30.67;51.55;101066.47;5588378;31;33835;-70
2023/09/25 12:48:59;;;;;;;8.63;2.53;;;;;;;31.01;50.92;101067.31;5587721;31;35123;-70
2023/09/25 12:52:02;;;;;;;6.87;2.35;;;;;;;31.02;49.62;101060.75;5588319;31;33862;-70
2023/09/25 12:55:06;;;;;;;9.55;1.85;;;;;;;30.55;50.97;101055.03;5587679;31;33744;-70
2023/09/25 12:58:09;;;;;;;6.78;1.80;;;;;;;32.86;45.34;101060.19;5587834;31;33868;-70
2023/09/25 13:01:13;;;;;;;8.73;2.28;;;;;;;32.37;46.40;101064.19;5587549;31;33860;-70
2023/09/25 13:04:16;;;;;;;8.55;2.10;;;;;;;31.69;48.01;101066.41;5587612;31;34542;-71
2023/09/25 13:07:20;;;;;;;8.30;1.92;;;;;;;30.22;52.56;101062.88;5587378;31;33783;-69
2023/09/25 13:10:22;;;;;;;7.95;1.80;;;;;;;28.90;56.19;101054.09;5587507;31;33859;-70
2023/09/25 13:13:25;;;;;;;6.45;2.00;;;;;;;29.14;56.77;101057.13;5587715;31;33741;-68
2023/09/25 13:16:33;;;;;;;9.43;2.00;;;;;;;28.48;59.25;101051.56;5587301;31;34152;-70
2023/09/25 13:19:39;;;;;;;9.83;2.50;;;;;;;27.47;69.12;101056.53;5589485;31;34312;-69
2023/09/25 13:22:42;;;;;;;6.82;2.40;;;;;;;27.88;65.71;101057.63;5589936;31;33895;-70
2023/09/25 13:25:46;;;;;;;8.02;2.10;;;;;;;27.59;70.72;101054.47;5590006;31;34892;-69
2023/09/25 13:28:49;;;;;;;12.82;4.35;;;;;;;27.06;69.15;101049.97;5590033;31;33904;-67
2023/09/25 13:31:52;;;;;;;10.57;2.12;;;;;;;28.90;61.89;101056.03;5590091;31;34667;-71
2023/09/25 13:34:55;;;;;;;7.95;2.00;;;;;;;28.78;60.63;101042.62;5590035;31;33951;-71
2023/09/25 13:37:59;;;;;;;5.57;1.98;;;;;;;29.60;58.01;101049.69;5589777;31;33777;-69
2023/09/25 13:41:04;;;;;;;9.68;2.30;;;;;;;31.78;50.55;101056.44;5590053;31;33775;-70
2023/09/25 13:44:08;;;;;;;6.32;2.00;;;;;;;30.56;52.30;101051.19;5589528;31;33814;-71
2023/09/25 13:47:11;;;;;;;11.82;2.28;;;;;;;29.55;55.89;101046.13;5590205;31;34059;-68
2023/09/25 13:50:14;;;;;;;8.50;2.40;;;;;;;29.75;56.43;101046.91;5589918;31;34195;-69
2023/09/25 13:53:17;;;;;;;6.65;1.92;;;;;;;28.87;56.93;101045.62;5589715;31;33803;-69
2023/09/25 13:56:21;;;;;;;8.18;2.03;;;;;;;28.62;59.14;101038.22;5590177;31;33904;-69
2023/09/25 13:59:25;;;;;;;9.63;2.10;;;;;;;27.39;63.05;101024.34;5589551;31;33763;-68
2023/09/25 14:02:28;;;;;;;13.02;2.53;;;;;;;27.13;66.45;101019.81;5589559;31;33868;-69
2023/09/25 14:05:35;;;;;;;10.75;2.37;;;;;;;26.72;67.27;101019.44;5589327;31;34820;-69
2023/09/25 14:08:39;;;;;;;8.75;2.10;;;;;;;26.39;71.33;101023.22;5589437;31;33767;-68